^^
Your Local Weather - Clay, NY Station Historical Data
Daily Summary for August 9, 2017 Units:  English    Metric   Both
« Previous Day
Next Day »
Daily Weekly Monthly Yearly Custom
  High: Low: Average:
Temperature: 80.2 °F 55.6 °F 68.1 °F
Dew Point: 65.8 °F 52.4 °F 59 °F
Humidity: 91% 48% 75%
Wind Speed: 3.0mph 0.0mph 0.5mph
Wind Gust: 8.0mph - -
Wind- - WSW
Pressure: 30.15 in 30.05 in -
Precipitation: 0.00 in    
Historical Graphs
 
 
Tabular Data for August 9, 2017
Time Temperature Dew Point Pressure Wind Wind Speed Wind Gust Humidity Rainfall Rate (Hourly) solar
00:02 56.3 °F 52.8 °F 30.05 in Calm     88% 0.00 in 0 W/m2
00:08 56.2 °F 52.7 °F 30.05 in Calm     88% 0.00 in 0 W/m2
00:14 56.1 °F 52.6 °F 30.05 in Calm     88% 0.00 in 0 W/m2
00:16 56.1 °F 52.6 °F 30.05 in Calm     88% 0.00 in 0 W/m2
00:22 56.1 °F 52.6 °F 30.06 in Calm     88% 0.00 in 0 W/m2
00:28 56.0 °F 52.5 °F 30.06 in Calm     88% 0.00 in 0 W/m2
00:36 56.0 °F 52.8 °F 30.06 in Calm     89% 0.00 in 0 W/m2
00:42 55.9 °F 52.7 °F 30.06 in Calm     89% 0.00 in 0 W/m2
00:48 55.8 °F 52.6 °F 30.06 in Calm     89% 0.00 in 0 W/m2
00:54 55.8 °F 52.6 °F 30.06 in Calm     89% 0.00 in 0 W/m2
01:00 55.6 °F 52.4 °F 30.06 in Calm     89% 0.00 in 0 W/m2
01:06 55.8 °F 52.6 °F 30.06 in Calm     89% 0.00 in 0 W/m2
01:12 55.8 °F 52.9 °F 30.06 in Calm     90% 0.00 in 0 W/m2
01:18 55.8 °F 52.9 °F 30.06 in Calm     90% 0.00 in 0 W/m2
01:24 55.7 °F 52.8 °F 30.06 in Calm     90% 0.00 in 0 W/m2
01:30 55.6 °F 52.7 °F 30.06 in Calm     90% 0.00 in 0 W/m2
01:36 55.7 °F 52.8 °F 30.06 in Calm     90% 0.00 in 0 W/m2
01:42 55.7 °F 52.8 °F 30.06 in Calm     90% 0.00 in 0 W/m2
01:48 55.9 °F 53.0 °F 30.06 in Calm     90% 0.00 in 0 W/m2
01:54 56.0 °F 53.1 °F 30.05 in Calm     90% 0.00 in 0 W/m2
02:00 56.2 °F 53.3 °F 30.05 in Calm     90% 0.00 in 0 W/m2
02:06 56.2 °F 53.3 °F 30.05 in Calm   1.0 mph 90% 0.00 in 0 W/m2
02:12 56.2 °F 53.3 °F 30.05 in Calm     90% 0.00 in 0 W/m2
02:18 56.2 °F 53.3 °F 30.05 in Calm     90% 0.00 in 0 W/m2
02:26 56.4 °F 53.2 °F 30.05 in Calm     89% 0.00 in 0 W/m2
02:32 56.4 °F 53.2 °F 30.05 in Calm     89% 0.00 in 0 W/m2
02:38 56.4 °F 53.2 °F 30.05 in Calm     89% 0.00 in 0 W/m2
02:44 56.3 °F 53.1 °F 30.05 in Calm     89% 0.00 in 0 W/m2
02:50 56.3 °F 53.1 °F 30.06 in Calm     89% 0.00 in 0 W/m2
02:56 56.2 °F 53.0 °F 30.06 in Calm     89% 0.00 in 0 W/m2
03:03 56.1 °F 52.9 °F 30.06 in Calm     89% 0.00 in 0 W/m2
03:08 56.0 °F 52.8 °F 30.06 in Calm     89% 0.00 in 0 W/m2
03:14 55.9 °F 52.7 °F 30.06 in Calm     89% 0.00 in 0 W/m2
03:20 55.8 °F 52.9 °F 30.05 in Calm     90% 0.00 in 0 W/m2
03:26 55.7 °F 52.8 °F 30.06 in Calm     90% 0.00 in 0 W/m2
03:32 55.6 °F 52.7 °F 30.06 in Calm     90% 0.00 in 0 W/m2
03:38 55.6 °F 52.7 °F 30.06 in Calm     90% 0.00 in 0 W/m2
03:44 55.7 °F 52.8 °F 30.06 in Calm     90% 0.00 in 0 W/m2
03:50 55.8 °F 52.9 °F 30.06 in Calm     90% 0.00 in 0 W/m2
03:56 55.8 °F 52.9 °F 30.06 in Calm     90% 0.00 in 0 W/m2
04:02 55.7 °F 52.8 °F 30.06 in Calm     90% 0.00 in 0 W/m2
04:08 55.8 °F 52.9 °F 30.06 in Calm     90% 0.00 in 0 W/m2
04:14 55.9 °F 53.0 °F 30.06 in Calm   1.0 mph 90% 0.00 in 0 W/m2
04:20 56.3 °F 53.4 °F 30.06 in Calm     90% 0.00 in 0 W/m2
04:26 56.8 °F 53.9 °F 30.06 in Calm     90% 0.00 in 0 W/m2
04:32 57.0 °F 53.8 °F 30.06 in Calm     89% 0.00 in 0 W/m2
04:38 57.3 °F 53.8 °F 30.06 in Calm     88% 0.00 in 0 W/m2
04:44 57.7 °F 54.2 °F 30.06 in Calm     88% 0.00 in 0 W/m2
04:50 58.0 °F 54.2 °F 30.07 in Calm     87% 0.00 in 0 W/m2
04:56 58.4 °F 54.2 °F 30.07 in Calm     86% 0.00 in 0 W/m2
05:02 58.8 °F 54.6 °F 30.07 in Calm     86% 0.00 in 0 W/m2
05:08 59.1 °F 54.6 °F 30.07 in Calm     85% 0.00 in 0 W/m2
05:14 59.2 °F 54.7 °F 30.07 in Calm   1.0 mph 85% 0.00 in 0 W/m2
05:20 59.3 °F 54.5 °F 30.07 in Calm     84% 0.00 in 0 W/m2
05:26 59.5 °F 54.7 °F 30.07 in Calm     84% 0.00 in 0 W/m2
05:32 59.5 °F 54.7 °F 30.07 in Calm     84% 0.00 in 0 W/m2
05:38 59.6 °F 54.8 °F 30.08 in Calm   1.0 mph 84% 0.00 in 0 W/m2
05:44 59.8 °F 55.0 °F 30.08 in Calm     84% 0.00 in 0 W/m2
05:50 59.8 °F 55.0 °F 30.08 in Calm   1.0 mph 84% 0.00 in 0 W/m2
05:56 59.9 °F 55.1 °F 30.08 in Calm   1.0 mph 84% 0.00 in 0 W/m2
06:02 59.7 °F 54.9 °F 30.09 in Calm     84% 0.00 in 0 W/m2
06:08 59.6 °F 54.8 °F 30.09 in Calm     84% 0.00 in 5 W/m2
06:14 59.4 °F 54.9 °F 30.09 in Calm     85% 0.00 in 7 W/m2
06:22 59.2 °F 54.7 °F 30.09 in Calm     85% 0.00 in 12 W/m2
06:28 59.2 °F 55.0 °F 30.09 in Calm     86% 0.00 in 16 W/m2
06:34 59.3 °F 55.1 °F 30.09 in Calm     86% 0.00 in 19 W/m2
06:40 59.6 °F 55.4 °F 30.09 in Calm     86% 0.00 in 25 W/m2
06:46 60.1 °F 55.9 °F 30.09 in NW 1.0 mph 2.0 mph 86% 0.00 in 32 W/m2
06:52 60.6 °F 56.1 °F 30.09 in NW 1.0 mph 1.0 mph 85% 0.00 in 53 W/m2
06:58 61.0 °F 56.5 °F 30.09 in Calm   1.0 mph 85% 0.00 in 88 W/m2
07:04 61.4 °F 56.5 °F 30.10 in Calm     84% 0.00 in 105 W/m2
07:10 62.2 °F 57.3 °F 30.10 in Calm     84% 0.00 in 120 W/m2
07:16 62.7 °F 57.1 °F 30.10 in Calm     82% 0.00 in 134 W/m2
07:22 63.1 °F 57.5 °F 30.10 in Calm     82% 0.00 in 151 W/m2
07:28 63.5 °F 57.6 °F 30.10 in Calm     81% 0.00 in 165 W/m2
07:34 64.0 °F 58.4 °F 30.10 in Calm     82% 0.00 in 181 W/m2
07:40 64.6 °F 58.3 °F 30.10 in Calm   1.0 mph 80% 0.00 in 211 W/m2
07:46 65.0 °F 58.7 °F 30.10 in WNW 1.0 mph 3.0 mph 80% 0.00 in 278 W/m2
07:52 65.6 °F 58.9 °F 30.10 in SSW 1.0 mph 1.0 mph 79% 0.00 in 285 W/m2
07:58 66.1 °F 59.4 °F 30.11 in WSW 1.0 mph 1.0 mph 79% 0.00 in 93 W/m2
08:04 66.2 °F 59.5 °F 30.11 in South 1.0 mph 3.0 mph 79% 0.00 in 90 W/m2
08:10 66.2 °F 59.5 °F 30.11 in South 1.0 mph 1.0 mph 79% 0.00 in 76 W/m2
08:16 66.2 °F 59.5 °F 30.12 in SW 1.0 mph 2.0 mph 79% 0.00 in 200 W/m2
08:22 66.8 °F 60.1 °F 30.12 in Calm   1.0 mph 79% 0.00 in 109 W/m2
08:28 67.3 °F 59.8 °F 30.12 in Calm   3.0 mph 77% 0.00 in 209 W/m2
08:34 67.6 °F 60.1 °F 30.12 in Calm     77% 0.00 in 353 W/m2
08:40 68.0 °F 60.5 °F 30.12 in Calm     77% 0.00 in 200 W/m2
08:46 68.4 °F 60.5 °F 30.12 in Calm   1.0 mph 76% 0.00 in 387 W/m2
08:52 68.9 °F 60.6 °F 30.12 in Calm   3.0 mph 75% 0.00 in 374 W/m2
08:58 69.3 °F 61.4 °F 30.12 in Calm   3.0 mph 76% 0.00 in 410 W/m2
09:04 69.5 °F 60.8 °F 30.12 in NW 1.0 mph 3.0 mph 74% 0.00 in 454 W/m2
09:10 69.7 °F 60.7 °F 30.12 in SW 2.0 mph 3.0 mph 73% 0.00 in 478 W/m2
09:16 70.3 °F 61.6 °F 30.12 in SW 1.0 mph 3.0 mph 74% 0.00 in 499 W/m2
09:22 70.9 °F 61.4 °F 30.12 in WSW 1.0 mph 6.0 mph 72% 0.00 in 526 W/m2
09:28 71.4 °F 61.9 °F 30.12 in WSW 1.0 mph 6.0 mph 72% 0.00 in 531 W/m2
09:34 71.7 °F 62.6 °F 30.12 in Calm   1.0 mph 73% 0.00 in 557 W/m2
09:40 71.9 °F 62.0 °F 30.12 in WSW 1.0 mph 1.0 mph 71% 0.00 in 464 W/m2
09:46 72.3 °F 62.4 °F 30.12 in NNW 1.0 mph 2.0 mph 71% 0.00 in 587 W/m2
09:52 72.4 °F 61.7 °F 30.13 in SW 1.0 mph 1.0 mph 69% 0.00 in 612 W/m2
09:58 72.7 °F 62.8 °F 30.13 in West 1.0 mph 2.0 mph 71% 0.00 in 615 W/m2
10:04 72.9 °F 62.9 °F 30.13 in WSW 1.0 mph 5.0 mph 71% 0.00 in 568 W/m2
10:10 73.1 °F 62.3 °F 30.13 in SW 1.0 mph 1.0 mph 69% 0.00 in 679 W/m2
10:16 73.3 °F 61.7 °F 30.13 in WSW 2.0 mph 6.0 mph 67% 0.00 in 417 W/m2
10:22 73.1 °F 61.5 °F 30.14 in WSW 2.0 mph 4.0 mph 67% 0.00 in 587 W/m2
10:28 73.3 °F 62.5 °F 30.14 in West 2.0 mph 4.0 mph 69% 0.00 in 700 W/m2
10:34 74.5 °F 63.2 °F 30.13 in West 1.0 mph 2.0 mph 68% 0.00 in 726 W/m2
10:40 75.3 °F 63.2 °F 30.13 in WNW 1.0 mph 1.0 mph 66% 0.00 in 742 W/m2
10:46 75.3 °F 61.8 °F 30.13 in Calm   3.0 mph 63% 0.00 in 744 W/m2
10:52 74.8 °F 62.2 °F 30.13 in SSW 2.0 mph 3.0 mph 65% 0.00 in 686 W/m2
10:58 74.2 °F 61.2 °F 30.13 in SSW 2.0 mph 4.0 mph 64% 0.00 in 737 W/m2
11:04 74.0 °F 63.2 °F 30.13 in SSW 2.0 mph 4.0 mph 69% 0.00 in 714 W/m2
11:10 74.6 °F 62.9 °F 30.13 in SE 2.0 mph 2.0 mph 67% 0.00 in 779 W/m2
11:16 75.4 °F 63.2 °F 30.13 in SSW 2.0 mph 3.0 mph 66% 0.00 in 802 W/m2
11:22 75.5 °F 62.5 °F 30.13 in SW 2.0 mph 3.0 mph 64% 0.00 in 814 W/m2
11:28 76.2 °F 63.6 °F 30.13 in WNW 2.0 mph 3.0 mph 65% 0.00 in 830 W/m2
11:34 76.5 °F 62.0 °F 30.13 in WNW 1.0 mph 3.0 mph 61% 0.00 in 828 W/m2
11:40 76.5 °F 62.5 °F 30.13 in WSW 1.0 mph 1.0 mph 62% 0.00 in 835 W/m2
11:46 76.9 °F 62.4 °F 30.13 in SSW 1.0 mph 1.0 mph 61% 0.00 in 846 W/m2
11:52 76.4 °F 63.3 °F 30.13 in NW 1.0 mph 1.0 mph 64% 0.00 in 891 W/m2
11:58 76.6 °F 63.1 °F 30.13 in SW 1.0 mph 1.0 mph 63% 0.00 in 856 W/m2
12:04 76.8 °F 64.6 °F 30.13 in NNW 1.0 mph 2.0 mph 66% 0.00 in 861 W/m2
12:10 77.4 °F 63.8 °F 30.13 in NNW 1.0 mph 3.0 mph 63% 0.00 in 870 W/m2
12:16 77.2 °F 62.2 °F 30.13 in SSW 1.0 mph 4.0 mph 60% 0.00 in 895 W/m2
12:22 77.2 °F 61.8 °F 30.13 in SW 2.0 mph 6.0 mph 59% 0.00 in 889 W/m2
12:28 77.9 °F 64.7 °F 30.13 in NNW 2.0 mph 6.0 mph 64% 0.00 in 965 W/m2
12:34 76.9 °F 63.3 °F 30.13 in NNW 1.0 mph 3.0 mph 63% 0.00 in 976 W/m2
12:40 77.1 °F 62.6 °F 30.13 in SW 1.0 mph 1.0 mph 61% 0.00 in 879 W/m2
12:46 77.6 °F 64.5 °F 30.12 in NW 2.0 mph 2.0 mph 64% 0.00 in 907 W/m2
12:52 77.7 °F 64.1 °F 30.12 in SW 2.0 mph 8.0 mph 63% 0.00 in 886 W/m2
12:58 77.5 °F 63.5 °F 30.12 in West 2.0 mph 8.0 mph 62% 0.00 in 882 W/m2
13:04 78.3 °F 65.1 °F 30.12 in West 1.0 mph 3.0 mph 64% 0.00 in 879 W/m2
13:10 78.9 °F 64.3 °F 30.12 in North 2.0 mph 3.0 mph 61% 0.00 in 877 W/m2
13:16 78.2 °F 64.1 °F 30.12 in NNW 2.0 mph 3.0 mph 62% 0.00 in 891 W/m2
13:22 78.4 °F 65.2 °F 30.12 in NW 2.0 mph 4.0 mph 64% 0.00 in 904 W/m2
13:28 78.8 °F 62.3 °F 30.12 in West 3.0 mph 4.0 mph 57% 0.00 in 932 W/m2
13:34 79.3 °F 63.7 °F 30.12 in WSW 2.0 mph 3.0 mph 59% 0.00 in 976 W/m2
13:40 78.1 °F 63.1 °F 30.12 in SW 1.0 mph 1.0 mph 60% 0.00 in 1023 W/m2
13:46 79.0 °F 65.8 °F 30.12 in WSW 1.0 mph 4.0 mph 64% 0.00 in 932 W/m2
13:52 78.9 °F 62.4 °F 30.12 in SSW 2.0 mph 4.0 mph 57% 0.00 in 940 W/m2
13:58 78.9 °F 61.9 °F 30.12 in SW 3.0 mph 4.0 mph 56% 0.00 in 953 W/m2
14:04 78.2 °F 61.7 °F 30.12 in WSW 2.0 mph 3.0 mph 57% 0.00 in 984 W/m2
14:10 79.4 °F 64.3 °F 30.11 in WSW 1.0 mph 1.0 mph 60% 0.00 in 923 W/m2
14:16 80.2 °F 63.1 °F 30.11 in WSW 1.0 mph 2.0 mph 56% 0.00 in 946 W/m2
14:22 79.7 °F 65.5 °F 30.11 in West 2.0 mph 5.0 mph 62% 0.00 in 926 W/m2
14:28 79.9 °F 61.2 °F 30.11 in SSW 2.0 mph 5.0 mph 53% 0.00 in 900 W/m2
14:34 79.8 °F 61.1 °F 30.11 in SSW 1.0 mph 3.0 mph 53% 0.00 in 879 W/m2
14:40 79.5 °F 62.9 °F 30.11 in North 2.0 mph 2.0 mph 57% 0.00 in 972 W/m2
14:46 79.5 °F 61.4 °F 30.11 in NNW 1.0 mph 2.0 mph 54% 0.00 in 735 W/m2
14:52 78.7 °F 61.2 °F 30.11 in SW 1.0 mph 2.0 mph 55% 0.00 in 176 W/m2
14:58 77.9 °F 61.4 °F 30.11 in SW 1.0 mph 2.0 mph 57% 0.00 in 178 W/m2
15:04 77.5 °F 61.6 °F 30.11 in WSW 1.0 mph 2.0 mph 58% 0.00 in 183 W/m2
15:10 77.4 °F 61.5 °F 30.11 in WSW 1.0 mph 1.0 mph 58% 0.00 in 144 W/m2
15:16 77.1 °F 61.2 °F 30.11 in WSW 2.0 mph 3.0 mph 58% 0.00 in 125 W/m2
15:22 76.9 °F 62.0 °F 30.12 in WSW 1.0 mph 2.0 mph 60% 0.00 in 148 W/m2
15:28 76.8 °F 63.2 °F 30.12 in Calm   2.0 mph 63% 0.00 in 160 W/m2
15:34 76.8 °F 62.8 °F 30.12 in Calm     62% 0.00 in 207 W/m2
15:40 77.0 °F 64.3 °F 30.12 in Calm     65% 0.00 in 352 W/m2
15:46 77.7 °F 63.6 °F 30.11 in Calm     62% 0.00 in 540 W/m2
15:52 79.0 °F 63.4 °F 30.11 in SW 1.0 mph 3.0 mph 59% 0.00 in 577 W/m2
15:58 78.7 °F 62.2 °F 30.11 in ESE 1.0 mph 4.0 mph 57% 0.00 in 315 W/m2
16:04 78.1 °F 63.6 °F 30.11 in SSW 2.0 mph 4.0 mph 61% 0.00 in 279 W/m2
16:10 77.2 °F 63.2 °F 30.11 in West 2.0 mph 2.0 mph 62% 0.00 in 265 W/m2
16:16 76.6 °F 60.2 °F 30.11 in WSW 1.0 mph 2.0 mph 57% 0.00 in 239 W/m2
16:22 76.4 °F 58.0 °F 30.11 in WSW 1.0 mph 2.0 mph 53% 0.00 in 260 W/m2
16:28 76.6 °F 59.7 °F 30.11 in SW 1.0 mph 2.0 mph 56% 0.00 in 325 W/m2
16:34 76.8 °F 60.4 °F 30.11 in WSW 1.0 mph 2.0 mph 57% 0.00 in 301 W/m2
16:40 76.8 °F 58.9 °F 30.11 in West 1.0 mph 1.0 mph 54% 0.00 in 265 W/m2
16:46 76.9 °F 59.5 °F 30.11 in Calm   1.0 mph 55% 0.00 in 269 W/m2
16:52 77.1 °F 59.2 °F 30.11 in SSW 1.0 mph 3.0 mph 54% 0.00 in 666 W/m2
16:58 78.6 °F 62.1 °F 30.11 in SSW 1.0 mph 3.0 mph 57% 0.00 in 285 W/m2
17:04 78.2 °F 58.0 °F 30.11 in SW 2.0 mph 5.0 mph 50% 0.00 in 186 W/m2
17:10 78.6 °F 59.0 °F 30.10 in WSW 1.0 mph 1.0 mph 51% 0.00 in 172 W/m2
17:16 78.7 °F 57.9 °F 30.11 in South 1.0 mph 1.0 mph 49% 0.00 in 127 W/m2
17:22 78.7 °F 57.9 °F 30.10 in SW 1.0 mph 2.0 mph 49% 0.00 in 114 W/m2
17:28 78.6 °F 57.3 °F 30.10 in SW 1.0 mph 3.0 mph 48% 0.00 in 102 W/m2
17:34 78.5 °F 58.3 °F 30.10 in WSW 2.0 mph 4.0 mph 50% 0.00 in 109 W/m2
17:40 78.5 °F 59.4 °F 30.10 in WSW 1.0 mph 1.0 mph 52% 0.00 in 90 W/m2
17:46 78.7 °F 58.5 °F 30.10 in Calm   1.0 mph 50% 0.00 in 84 W/m2
17:52 78.7 °F 57.9 °F 30.10 in Calm     49% 0.00 in 79 W/m2
17:58 78.5 °F 58.3 °F 30.10 in SW 1.0 mph 4.0 mph 50% 0.00 in 76 W/m2
18:06 78.5 °F 59.4 °F 30.10 in SW 1.0 mph 1.0 mph 52% 0.00 in 70 W/m2
18:12 78.4 °F 59.3 °F 30.10 in Calm     52% 0.00 in 69 W/m2
18:18 78.1 °F 59.6 °F 30.10 in Calm     53% 0.00 in 51 W/m2
18:22 77.8 °F 59.3 °F 30.10 in Calm   1.0 mph 53% 0.00 in 47 W/m2
18:28 77.4 °F 59.5 °F 30.10 in Calm   1.0 mph 54% 0.00 in 46 W/m2
18:34 77.2 °F 59.3 °F 30.10 in Calm     54% 0.00 in 56 W/m2
18:38 77.0 °F 62.0 °F 30.10 in Calm     60% 0.00 in 88 W/m2
18:46 76.6 °F 60.2 °F 30.10 in Calm   3.0 mph 57% 0.00 in 109 W/m2
18:52 77.1 °F 60.2 °F 30.10 in SW 2.0 mph 3.0 mph 56% 0.00 in 91 W/m2
18:58 77.3 °F 60.4 °F 30.10 in SW 2.0 mph 3.0 mph 56% 0.00 in 62 W/m2
19:04 77.4 °F 60.5 °F 30.10 in SW 1.0 mph 2.0 mph 56% 0.00 in 51 W/m2
19:10 77.3 °F 61.4 °F 30.10 in Calm     58% 0.00 in 46 W/m2
19:16 77.1 °F 60.7 °F 30.11 in Calm     57% 0.00 in 42 W/m2
19:22 76.8 °F 63.2 °F 30.11 in Calm     63% 0.00 in 39 W/m2
19:28 75.8 °F 64.9 °F 30.11 in Calm     69% 0.00 in 33 W/m2
19:34 74.3 °F 64.7 °F 30.11 in Calm     72% 0.00 in 32 W/m2
19:40 73.2 °F 64.4 °F 30.11 in Calm     74% 0.00 in 25 W/m2
19:46 72.3 °F 64.3 °F 30.11 in Calm     76% 0.00 in 19 W/m2
19:52 71.6 °F 63.6 °F 30.12 in Calm     76% 0.00 in 16 W/m2
19:58 71.0 °F 63.4 °F 30.12 in Calm     77% 0.00 in 12 W/m2
20:04 70.6 °F 63.4 °F 30.12 in Calm     78% 0.00 in 9 W/m2
20:10 70.2 °F 62.6 °F 30.12 in Calm     77% 0.00 in 0 W/m2
20:16 69.6 °F 62.4 °F 30.13 in Calm     78% 0.00 in 0 W/m2
20:22 69.1 °F 62.3 °F 30.13 in Calm     79% 0.00 in 0 W/m2
20:28 68.7 °F 62.3 °F 30.13 in Calm     80% 0.00 in 0 W/m2
20:34 68.4 °F 62.0 °F 30.13 in Calm     80% 0.00 in 0 W/m2
20:40 68.0 °F 61.6 °F 30.13 in Calm     80% 0.00 in 0 W/m2
20:46 67.7 °F 61.7 °F 30.13 in Calm     81% 0.00 in 0 W/m2
20:52 67.4 °F 61.4 °F 30.13 in Calm     81% 0.00 in 0 W/m2
20:58 67.1 °F 61.4 °F 30.13 in Calm     82% 0.00 in 0 W/m2
21:04 66.9 °F 61.6 °F 30.13 in Calm     83% 0.00 in 0 W/m2
21:10 66.6 °F 61.3 °F 30.13 in Calm     83% 0.00 in 0 W/m2
21:16 66.4 °F 61.1 °F 30.13 in Calm     83% 0.00 in 0 W/m2
21:22 66.1 °F 61.1 °F 30.13 in Calm     84% 0.00 in 0 W/m2
21:24 66.0 °F 61.0 °F 30.14 in Calm     84% 0.00 in 0 W/m2
21:30 65.5 °F 60.5 °F 30.14 in Calm     84% 0.00 in 0 W/m2
21:36 65.2 °F 60.2 °F 30.14 in Calm     84% 0.00 in 0 W/m2
21:42 65.0 °F 60.4 °F 30.14 in Calm     85% 0.00 in 0 W/m2
21:48 64.9 °F 60.6 °F 30.14 in Calm     86% 0.00 in 0 W/m2
21:54 64.8 °F 60.8 °F 30.14 in Calm     87% 0.00 in 0 W/m2
22:00 64.6 °F 60.6 °F 30.15 in Calm     87% 0.00 in 0 W/m2
22:06 64.4 °F 60.4 °F 30.14 in Calm     87% 0.00 in 0 W/m2
22:12 64.2 °F 60.2 °F 30.14 in Calm     87% 0.00 in 0 W/m2
22:18 64.0 °F 60.4 °F 30.15 in Calm     88% 0.00 in 0 W/m2
22:24 63.7 °F 60.1 °F 30.15 in Calm     88% 0.00 in 0 W/m2
22:30 63.5 °F 59.9 °F 30.15 in Calm     88% 0.00 in 0 W/m2
22:36 63.4 °F 59.8 °F 30.15 in Calm     88% 0.00 in 0 W/m2
22:42 63.3 °F 59.7 °F 30.15 in Calm     88% 0.00 in 0 W/m2
22:48 63.3 °F 60.0 °F 30.15 in Calm     89% 0.00 in 0 W/m2
22:54 63.2 °F 59.9 °F 30.15 in Calm     89% 0.00 in 0 W/m2
23:00 63.1 °F 59.8 °F 30.15 in Calm     89% 0.00 in 0 W/m2
23:06 63.0 °F 59.7 °F 30.15 in Calm     89% 0.00 in 0 W/m2
23:16 62.9 °F 59.6 °F 30.15 in Calm     89% 0.00 in 0 W/m2
23:22 62.7 °F 59.7 °F 30.15 in Calm     90% 0.00 in 0 W/m2
23:28 62.6 °F 59.6 °F 30.15 in Calm     90% 0.00 in 0 W/m2
23:34 62.4 °F 59.4 °F 30.15 in Calm     90% 0.00 in 0 W/m2
23:40 62.5 °F 59.5 °F 30.15 in Calm     90% 0.00 in 0 W/m2
23:46 62.4 °F 59.4 °F 30.15 in Calm     90% 0.00 in 0 W/m2
23:50 62.4 °F 59.7 °F 30.15 in Calm     91% 0.00 in 0 W/m2
23:56 62.3 °F 59.6 °F 30.15 in Calm     91% 0.00 in 0 W/m2
Country Meadow, Clay, NY, USA
Compliments of Weather Underground - 2 mb